Time;durP1;ratioP1;P1;durP2;ratioP2;P2;SDS_P1;SDS_P2;PMS_P1;PMS_P2;Temp;Humidity;BMP_temperature;BMP_pressure;BME280_temperature;BME280_humidity;BME280_pressure;Samples;Min_cycle;Max_cycle;Signal;HPM_P1;HPM_P2
2022/02/25 00:01:30;;;;;;;1.90;0.60;;;;;;;4.67;79.76;98956.41;5054639;28;42404;-80
2022/02/25 00:03:57;;;;;;;0.80;0.80;;;;;;;4.72;79.67;98969.31;5071460;28;40090;-81
2022/02/25 00:06:25;;;;;;;0.93;0.80;;;;;;;4.65;79.57;98981.81;5071074;28;43460;-79
2022/02/25 00:08:53;;;;;;;0.50;0.50;;;;;;;4.67;79.11;98982.63;5072279;28;42840;-79
2022/02/25 00:11:21;;;;;;;1.03;0.80;;;;;;;4.68;79.57;98986.97;5054347;28;41173;-78
2022/02/25 00:13:49;;;;;;;0.87;0.87;;;;;;;4.52;78.78;98971.84;5071338;28;38879;-80
2022/02/25 00:16:17;;;;;;;0.63;0.60;;;;;;;4.51;79.11;98986.72;5054806;28;40850;-81
2022/02/25 00:18:45;;;;;;;0.80;0.60;;;;;;;4.43;79.04;98988.75;5054168;28;42639;-79
2022/02/25 00:21:12;;;;;;;0.70;0.70;;;;;;;4.33;79.04;98982.09;5055443;28;42240;-80
2022/02/25 00:23:40;;;;;;;1.67;0.70;;;;;;;4.25;79.12;98984.16;5080746;28;40097;-80
2022/02/25 00:26:08;;;;;;;1.63;0.80;;;;;;;4.16;79.46;98984.47;5071141;28;42707;-78
2022/02/25 00:28:37;;;;;;;0.67;0.67;;;;;;;4.09;79.59;98993.44;5072101;28;42589;-79
2022/02/25 00:31:05;;;;;;;0.80;0.60;;;;;;;4.05;79.44;99000.56;5071658;28;42051;-79
2022/02/25 00:33:39;;;;;;;0.50;0.50;;;;;;;4.01;79.39;99003.34;5054243;28;40355;-80
2022/02/25 00:36:06;;;;;;;0.57;0.57;;;;;;;3.89;79.56;98999.38;5071062;28;41641;-81
2022/02/25 00:38:34;;;;;;;3.37;0.67;;;;;;;3.78;79.24;98988.41;5071574;28;42676;-78
2022/02/25 00:41:02;;;;;;;0.57;0.57;;;;;;;3.86;79.42;99017.81;5071310;28;42634;-79
2022/02/25 00:43:29;;;;;;;0.77;0.77;;;;;;;3.71;79.71;99008.69;5054146;28;38771;-79
2022/02/25 00:46:03;;;;;;;0.57;0.57;;;;;;;3.75;79.75;99020.78;5054053;28;40652;-80
2022/02/25 00:48:31;;;;;;;1.13;0.60;;;;;;;3.75;79.53;99028.63;5053852;28;41598;-78
2022/02/25 00:50:58;;;;;;;0.73;0.70;;;;;;;3.77;79.74;99034.69;5053939;28;41600;-78
2022/02/25 00:53:25;;;;;;;3.27;0.70;;;;;;;3.80;79.25;99038.97;5054108;28;38717;-81
2022/02/25 00:55:53;;;;;;;1.10;0.80;;;;;;;3.73;78.95;99033.06;5054266;28;41704;-79
2022/02/25 00:58:21;;;;;;;1.37;0.90;;;;;;;3.72;79.35;99043.56;5049632;28;42872;-82
2022/02/25 01:00:48;;;;;;;0.77;0.60;;;;;;;3.72;79.28;99047.06;5047994;28;42238;-80
2022/02/25 01:03:17;;;;;;;1.50;0.70;;;;;;;3.67;79.52;99038.50;5050683;28;39897;-81
2022/02/25 01:05:45;;;;;;;0.60;0.60;;;;;;;3.57;79.15;99037.09;5050834;28;40967;-78
2022/02/25 01:08:12;;;;;;;0.40;0.40;;;;;;;3.76;79.16;99058.31;5050150;28;42786;-77
2022/02/25 01:10:40;;;;;;;0.93;0.63;;;;;;;3.86;79.13;99055.34;5050718;28;42998;-77
2022/02/25 01:13:07;;;;;;;1.10;0.80;;;;;;;3.98;78.82;99068.03;5051233;28;40007;-79
2022/02/25 01:15:35;;;;;;;0.50;0.50;;;;;;;4.07;78.78;99073.91;5052747;28;41717;-79
2022/02/25 01:18:02;;;;;;;0.50;0.50;;;;;;;4.11;78.66;99071.09;5033615;28;43158;-78
2022/02/25 01:20:31;;;;;;;0.40;0.40;;;;;;;4.09;78.56;99069.44;5033672;28;42205;-79
2022/02/25 01:22:58;;;;;;;0.60;0.60;;;;;;;4.12;78.49;99077.22;5033991;28;38731;-80
2022/02/25 01:25:26;;;;;;;0.60;0.60;;;;;;;4.14;78.70;99078.88;5033644;28;43712;-78
2022/02/25 01:27:54;;;;;;;2.20;0.70;;;;;;;4.12;78.06;99071.97;5077501;28;43728;-77
2022/02/25 01:30:28;;;;;;;0.60;0.60;;;;;;;4.03;77.81;99083.63;5063916;28;42250;-78
2022/02/25 01:33:02;;;;;;;0.67;0.67;;;;;;;3.97;77.98;99089.91;5051286;28;38955;-79
2022/02/25 01:35:31;;;;;;;1.13;0.70;;;;;;;3.89;77.81;99091.91;5070892;28;41609;-80
2022/02/25 01:37:59;;;;;;;0.60;0.60;;;;;;;3.82;78.26;99100.88;5053560;28;45245;-79
2022/02/25 01:40:26;;;;;;;0.67;0.60;;;;;;;3.69;78.21;99088.22;5070655;28;43401;-78
2022/02/25 01:42:54;;;;;;;0.87;0.80;;;;;;;3.72;78.10;99103.81;5053930;28;40398;-79
2022/02/25 01:45:22;;;;;;;0.77;0.60;;;;;;;3.61;78.54;99101.53;5053672;28;40883;-78
2022/02/25 01:47:56;;;;;;;0.83;0.63;;;;;;;3.62;78.37;99108.50;5053162;28;44181;-79
2022/02/25 01:50:24;;;;;;;1.33;0.70;;;;;;;3.51;78.34;99111.44;5053640;28;41037;-80
2022/02/25 01:53:00;;;;;;;0.83;0.83;;;;;;;3.58;78.38;99123.47;5036943;28;39951;-80
2022/02/25 01:55:30;;;;;;;1.13;0.80;;;;;;;3.54;78.34;99131.44;5050400;28;41791;-77
2022/02/25 01:57:58;;;;;;;0.57;0.57;;;;;;;3.61;78.13;99138.19;5052657;28;41584;-79
2022/02/25 02:00:26;;;;;;;0.80;0.80;;;;;;;3.66;78.14;99141.53;5073173;28;41209;-78
2022/02/25 02:02:54;;;;;;;0.60;0.60;;;;;;;3.71;78.14;99138.81;5073586;28;39744;-79
2022/02/25 02:05:22;;;;;;;0.90;0.90;;;;;;;3.73;77.94;99143.06;5056805;28;40724;-78
2022/02/25 02:07:50;;;;;;;0.70;0.70;;;;;;;3.73;77.20;99153.53;5073564;28;41494;-79
2022/02/25 02:10:19;;;;;;;0.83;0.83;;;;;;;3.75;77.25;99154.34;5073125;28;41502;-80
2022/02/25 02:12:47;;;;;;;0.80;0.80;;;;;;;3.76;77.32;99163.94;5073360;28;38791;-78
2022/02/25 02:15:15;;;;;;;1.13;0.70;;;;;;;3.72;77.08;99172.78;5072909;28;41623;-78
2022/02/25 02:17:42;;;;;;;1.43;0.80;;;;;;;3.77;76.65;99163.03;5074381;28;42715;-78
2022/02/25 02:20:10;;;;;;;1.57;0.60;;;;;;;3.81;76.25;99159.44;5055816;28;40724;-80
2022/02/25 02:22:39;;;;;;;1.90;0.90;;;;;;;3.96;76.45;99169.41;5056325;28;38525;-79
2022/02/25 02:25:07;;;;;;;4.07;0.80;;;;;;;3.96;75.89;99166.78;5056306;28;40636;-79
2022/02/25 02:30:20;;;;;;;3.00;0.80;;;;;;;3.90;76.16;99181.84;5073787;28;42202;-78
2022/02/25 02:32:48;;;;;;;0.60;0.60;;;;;;;3.83;76.12;99180.34;5074262;28;40922;-79
2022/02/25 02:35:15;;;;;;;0.50;0.43;;;;;;;3.78;76.07;99185.72;5055626;28;42572;-77
2022/02/25 02:37:44;;;;;;;0.77;0.70;;;;;;;3.80;76.21;99190.91;5073546;28;41787;-80
2022/02/25 02:40:12;;;;;;;0.80;0.70;;;;;;;3.82;75.93;99195.19;5071958;28;40801;-77
2022/02/25 02:42:40;;;;;;;0.60;0.60;;;;;;;3.87;75.98;99193.28;5063664;28;38574;-77
2022/02/25 02:45:09;;;;;;;0.67;0.67;;;;;;;3.90;75.73;99198.44;5080307;28;41685;-78
2022/02/25 02:47:43;;;;;;;0.80;0.80;;;;;;;3.90;75.66;99197.56;5077775;28;42371;-78
2022/02/25 02:50:10;;;;;;;0.70;0.70;;;;;;;3.84;75.41;99202.97;5078949;28;41172;-79
2022/02/25 02:52:38;;;;;;;1.40;0.60;;;;;;;3.77;75.30;99207.56;5078267;28;41370;-78
2022/02/25 02:55:08;;;;;;;1.03;0.70;;;;;;;3.66;75.63;99199.16;5055300;28;42607;-78
2022/02/25 02:57:36;;;;;;;3.20;0.70;;;;;;;3.65;75.59;99218.41;5072657;28;43256;-79
2022/02/25 03:00:09;;;;;;;2.23;0.70;;;;;;;3.58;75.60;99216.88;5072008;28;43197;-78
2022/02/25 03:02:36;;;;;;;1.10;0.63;;;;;;;3.47;75.72;99211.03;5073650;28;40982;-77
2022/02/25 03:05:04;;;;;;;0.83;0.60;;;;;;;3.49;75.81;99223.19;5072087;28;42175;-79
2022/02/25 03:07:32;;;;;;;1.43;0.70;;;;;;;3.41;75.91;99221.72;5055331;28;42062;-79
2022/02/25 03:09:59;;;;;;;1.10;1.03;;;;;;;3.49;75.45;99238.06;5072002;28;42390;-77
2022/02/25 03:12:29;;;;;;;0.67;0.60;;;;;;;3.49;75.78;99238.06;5072354;28;39830;-79
2022/02/25 03:14:56;;;;;;;1.30;0.77;;;;;;;3.49;75.61;99230.19;5055335;28;42032;-78
2022/02/25 03:17:25;;;;;;;1.03;0.63;;;;;;;3.52;75.42;99233.59;5072000;28;44340;-80
2022/02/25 03:19:57;;;;;;;0.67;0.60;;;;;;;3.53;75.21;99235.31;5055380;28;40871;-80
2022/02/25 03:22:25;;;;;;;0.70;0.70;;;;;;;3.45;75.13;99239.06;5055303;28;38685;-78
2022/02/25 03:24:56;;;;;;;2.13;0.53;;;;;;;3.41;75.08;99247.88;5072011;28;44024;-77
2022/02/25 03:27:26;;;;;;;3.30;0.70;;;;;;;3.36;75.07;99247.13;5072367;28;44570;-79
2022/02/25 03:29:55;;;;;;;0.60;0.60;;;;;;;3.30;75.25;99252.56;5072013;28;42288;-80
2022/02/25 03:32:23;;;;;;;1.23;0.80;;;;;;;3.28;75.30;99255.22;5071898;28;40432;-78
2022/02/25 03:34:52;;;;;;;0.70;0.70;;;;;;;3.28;74.83;99254.34;5072825;28;42779;-80
2022/02/25 03:37:20;;;;;;;3.50;0.70;;;;;;;3.25;74.95;99260.53;5054796;28;41832;-81
2022/02/25 03:39:48;;;;;;;1.33;0.60;;;;;;;3.23;74.92;99268.41;5072395;28;42322;-78
2022/02/25 03:42:15;;;;;;;1.70;0.63;;;;;;;3.21;74.80;99270.19;5071983;28;41902;-79
2022/02/25 03:44:43;;;;;;;0.70;0.60;;;;;;;3.17;74.66;99262.50;5054856;28;40531;-78
2022/02/25 03:47:12;;;;;;;0.60;0.60;;;;;;;3.15;74.53;99259.91;5071723;28;41702;-77
2022/02/25 03:49:40;;;;;;;0.93;0.67;;;;;;;3.11;74.51;99270.47;5066943;28;42359;-78
2022/02/25 03:52:07;;;;;;;0.77;0.60;;;;;;;3.00;74.55;99244.59;5071777;28;40134;-78
2022/02/25 03:54:35;;;;;;;1.83;1.00;;;;;;;3.09;74.74;99274.94;5071449;28;41747;-78
2022/02/25 03:57:03;;;;;;;0.40;0.40;;;;;;;3.07;74.84;99277.56;5054669;28;44719;-80
2022/02/25 03:59:31;;;;;;;1.13;0.50;;;;;;;3.04;74.73;99277.66;5070461;28;42331;-78
2022/02/25 04:01:58;;;;;;;0.70;0.63;;;;;;;3.00;74.83;99286.47;5054680;28;38705;-78
2022/02/25 04:04:28;;;;;;;0.67;0.60;;;;;;;2.99;74.64;99295.19;5070618;28;41456;-79
2022/02/25 04:06:56;;;;;;;0.50;0.50;;;;;;;2.86;74.76;99278.94;5070660;28;42747;-79
2022/02/25 04:09:23;;;;;;;0.50;0.50;;;;;;;2.94;74.81;99296.22;5072345;28;42059;-79
2022/02/25 04:11:57;;;;;;;2.17;0.60;;;;;;;2.90;75.10;99295.44;5054555;28;39051;-78
2022/02/25 04:14:25;;;;;;;2.20;0.80;;;;;;;2.90;74.79;99308.53;5068477;28;40446;-80
2022/02/25 04:16:52;;;;;;;3.53;0.90;;;;;;;2.88;74.86;99308.56;5051109;28;42087;-81
2022/02/25 04:19:20;;;;;;;0.80;0.80;;;;;;;2.81;74.96;99300.91;5034439;28;41984;-78
2022/02/25 04:21:49;;;;;;;0.73;0.50;;;;;;;2.81;75.34;99307.00;5051029;28;41109;-77
2022/02/25 04:24:17;;;;;;;0.83;0.70;;;;;;;2.81;75.13;99312.22;5050560;28;42138;-79
2022/02/25 04:26:45;;;;;;;1.17;1.00;;;;;;;2.81;75.43;99319.22;5051928;28;43545;-79
2022/02/25 04:29:12;;;;;;;1.80;0.83;;;;;;;2.78;75.38;99311.44;5051588;28;43042;-77
2022/02/25 04:31:46;;;;;;;1.03;0.60;;;;;;;2.79;75.06;99318.38;5081531;28;40969;-77
2022/02/25 04:34:14;;;;;;;1.70;0.73;;;;;;;2.80;74.95;99320.09;5033850;28;40599;-79
2022/02/25 04:36:41;;;;;;;2.10;0.90;;;;;;;2.78;74.97;99322.75;5051017;28;42866;-77
2022/02/25 04:39:10;;;;;;;2.93;0.70;;;;;;;2.79;74.89;99321.00;5051966;28;42487;-77
2022/02/25 04:41:43;;;;;;;1.23;0.63;;;;;;;2.67;74.95;99305.59;5034008;28;39036;-79
2022/02/25 04:44:11;;;;;;;0.50;0.50;;;;;;;2.76;74.58;99327.16;5033897;28;40534;-77
2022/02/25 04:46:39;;;;;;;1.00;0.40;;;;;;;2.71;74.61;99336.03;5051956;28;42822;-80
2022/02/25 04:49:07;;;;;;;0.70;0.70;;;;;;;2.64;74.87;99316.97;5050336;28;41457;-78
2022/02/25 04:51:41;;;;;;;0.90;0.60;;;;;;;2.67;74.80;99324.75;5033248;28;40566;-78
2022/02/25 04:54:11;;;;;;;0.70;0.70;;;;;;;2.66;74.82;99332.63;5033038;28;40374;-81
2022/02/25 04:56:38;;;;;;;1.07;0.67;;;;;;;2.64;74.86;99337.03;5055392;28;42892;-77
2022/02/25 04:59:06;;;;;;;0.53;0.53;;;;;;;2.61;74.76;99329.25;5071074;28;42200;-77
2022/02/25 05:01:35;;;;;;;2.20;0.97;;;;;;;2.29;74.80;99281.19;5064109;28;39345;-79
2022/02/25 05:04:03;;;;;;;3.10;0.70;;;;;;;2.53;74.87;99322.47;5053848;28;40463;-79
2022/02/25 05:06:30;;;;;;;0.60;0.60;;;;;;;2.59;74.84;99341.53;5052139;28;43187;-79
2022/02/25 05:08:58;;;;;;;1.33;1.23;;;;;;;2.52;74.85;99341.66;5049367;28;42238;-78
2022/02/25 05:11:26;;;;;;;0.60;0.60;;;;;;;2.53;74.80;99343.38;5050079;28;39867;-78
2022/02/25 05:13:54;;;;;;;1.73;0.63;;;;;;;2.50;75.15;99347.81;5062358;28;41898;-78
2022/02/25 05:21:54;;;;;;;2.33;0.70;;;;;;;2.47;74.99;99367.03;5067054;28;41292;-78
2022/02/25 05:24:22;;;;;;;0.50;0.50;;;;;;;2.44;75.20;99364.50;5053341;28;40820;-77
2022/02/25 05:26:50;;;;;;;1.80;0.90;;;;;;;2.43;75.09;99368.00;5070761;28;42851;-76
2022/02/25 05:29:18;;;;;;;0.47;0.47;;;;;;;2.40;75.14;99368.06;5069824;28;42028;-78
2022/02/25 05:31:46;;;;;;;0.80;0.67;;;;;;;2.40;75.34;99377.66;5071325;28;40923;-77
2022/02/25 05:34:14;;;;;;;1.63;0.87;;;;;;;2.23;75.33;99351.88;5049281;28;40804;-77
2022/02/25 05:36:42;;;;;;;1.23;0.80;;;;;;;2.36;75.80;99382.06;5049421;28;42763;-77
2022/02/25 05:39:09;;;;;;;3.80;1.07;;;;;;;2.36;75.55;99378.59;5032945;28;42132;-77
2022/02/25 05:41:37;;;;;;;3.60;0.93;;;;;;;2.28;75.79;99373.53;5033266;28;39054;-79
2022/02/25 05:44:06;;;;;;;0.87;0.73;;;;;;;2.31;75.86;99386.56;5050732;28;41458;-78
2022/02/25 05:46:34;;;;;;;0.80;0.80;;;;;;;2.31;76.25;99383.94;5050087;28;43639;-77
2022/02/25 05:49:02;;;;;;;0.67;0.60;;;;;;;2.25;76.05;99375.34;5047711;28;42206;-77
2022/02/25 05:51:30;;;;;;;0.70;0.70;;;;;;;2.30;76.36;99384.84;5069217;28;41246;-78
2022/02/25 05:53:57;;;;;;;1.23;0.87;;;;;;;2.31;76.37;99383.94;5069900;28;41389;-77
2022/02/25 05:56:26;;;;;;;0.93;0.77;;;;;;;2.30;76.48;99387.44;5069675;28;43671;-78
2022/02/25 05:59:00;;;;;;;1.30;0.70;;;;;;;2.31;76.61;99402.25;5068039;28;43897;-79
2022/02/25 06:01:29;;;;;;;2.37;1.30;;;;;;;2.28;76.27;99407.53;5053212;28;38971;-79
2022/02/25 06:03:57;;;;;;;1.47;0.60;;;;;;;2.28;76.41;99412.75;5069297;28;41929;-79
2022/02/25 06:06:24;;;;;;;3.73;0.97;;;;;;;2.27;76.49;99413.63;5053077;28;41763;-79
2022/02/25 06:08:52;;;;;;;1.00;1.00;;;;;;;2.02;76.60;99370.59;5052539;28;41340;-78
2022/02/25 06:11:19;;;;;;;0.70;0.70;;;;;;;2.25;76.70;99409.31;5069655;28;41020;-78
2022/02/25 06:13:53;;;;;;;4.87;1.23;;;;;;;2.25;76.76;99412.81;5052797;28;40764;-77
2022/02/25 06:16:29;;;;;;;0.83;0.80;;;;;;;2.27;76.56;99418.88;5066586;28;44156;-79
2022/02/25 06:18:56;;;;;;;1.13;0.80;;;;;;;2.26;76.79;99426.72;5051682;28;42311;-79
2022/02/25 06:21:24;;;;;;;3.13;1.10;;;;;;;2.23;77.07;99422.41;5072601;28;38675;-78
2022/02/25 06:23:51;;;;;;;0.90;0.87;;;;;;;2.28;76.92;99431.03;5073714;28;42041;-77
2022/02/25 06:26:19;;;;;;;0.80;0.60;;;;;;;2.30;76.79;99442.31;5080535;28;42000;-78
2022/02/25 06:28:47;;;;;;;0.90;0.90;;;;;;;2.28;76.79;99444.09;5076139;28;41253;-78
2022/02/25 06:31:14;;;;;;;2.63;0.70;;;;;;;2.28;76.84;99436.25;5093504;28;41258;-77
2022/02/25 06:33:43;;;;;;;1.10;0.97;;;;;;;2.30;77.03;99439.72;5092337;28;41682;-78
2022/02/25 06:36:11;;;;;;;3.17;1.03;;;;;;;2.34;77.01;99446.63;5088143;28;41713;-79
2022/02/25 06:38:38;;;;;;;1.37;1.27;;;;;;;2.27;76.62;99429.31;5092299;28;43651;-78
2022/02/25 06:41:06;;;;;;;2.30;0.83;;;;;;;2.37;77.22;99451.75;5086341;28;39883;-77
2022/02/25 06:43:34;;;;;;;2.27;1.30;;;;;;;2.42;76.56;99460.38;5073586;28;41701;-79
2022/02/25 06:46:02;;;;;;;2.67;1.30;;;;;;;2.47;76.47;99462.91;5066184;28;42146;-78
2022/02/25 06:48:30;;;;;;;2.17;1.20;;;;;;;2.49;76.47;99466.31;5075390;28;41506;-79
2022/02/25 06:50:58;;;;;;;3.43;1.47;;;;;;;2.49;76.36;99472.41;5092624;28;40522;-77
2022/02/25 06:53:26;;;;;;;1.30;1.20;;;;;;;2.52;76.44;99469.75;5092626;28;41718;-78
2022/02/25 06:55:53;;;;;;;2.10;1.40;;;;;;;2.52;76.81;99463.66;5086447;28;43836;-80
2022/02/25 06:58:21;;;;;;;1.20;0.97;;;;;;;2.60;76.43;99477.44;5054562;28;42966;-78
2022/02/25 07:00:48;;;;;;;1.70;1.00;;;;;;;2.64;76.30;99475.63;5069340;28;40733;-78
2022/02/25 07:03:16;;;;;;;2.50;1.30;;;;;;;2.69;75.87;99484.25;5071901;28;43917;-79
2022/02/25 07:05:43;;;;;;;2.20;1.17;;;;;;;2.72;76.07;99486.81;5088632;28;42686;-78
2022/02/25 07:08:12;;;;;;;2.43;1.30;;;;;;;2.80;75.73;99492.72;5075199;28;41814;-78
2022/02/25 07:10:46;;;;;;;0.90;0.90;;;;;;;2.85;75.46;99493.47;5075594;28;39213;-77
2022/02/25 07:13:14;;;;;;;3.23;1.40;;;;;;;2.87;75.41;99495.16;5093618;28;41827;-79
2022/02/25 07:15:42;;;;;;;3.43;1.27;;;;;;;2.95;75.12;99492.41;5075580;28;41742;-79
2022/02/25 07:18:10;;;;;;;3.47;1.23;;;;;;;2.99;75.26;99498.41;5092396;28;42246;-78
2022/02/25 07:20:38;;;;;;;1.00;1.00;;;;;;;3.03;74.87;99500.94;5093658;28;40419;-78
2022/02/25 07:23:14;;;;;;;1.67;1.57;;;;;;;3.13;74.15;99497.22;5074413;28;41234;-79
2022/02/25 07:25:43;;;;;;;1.07;0.93;;;;;;;3.21;74.21;99500.50;5056344;28;41650;-78
2022/02/25 07:28:11;;;;;;;5.40;1.20;;;;;;;3.13;73.82;99491.97;5063235;28;41117;-83
2022/02/25 07:30:39;;;;;;;1.43;1.20;;;;;;;3.22;73.72;99502.25;5063489;28;39815;-81
2022/02/25 07:33:06;;;;;;;1.20;1.10;;;;;;;3.40;73.29;99510.59;5071320;28;41774;-82
2022/02/25 07:35:34;;;;;;;1.77;1.20;;;;;;;3.47;72.94;99504.28;5066524;28;42706;-79
2022/02/25 07:38:08;;;;;;;1.47;1.33;;;;;;;3.78;72.04;99523.63;5067734;28;42375;-82
2022/02/25 07:40:37;;;;;;;1.40;0.97;;;;;;;3.84;71.83;99523.47;5064858;28;41565;-79
2022/02/25 07:43:05;;;;;;;0.83;0.73;;;;;;;4.02;70.53;99537.00;5072940;28;41818;-80
2022/02/25 07:45:32;;;;;;;1.57;1.00;;;;;;;4.53;69.07;99530.41;5070258;28;42094;-82
2022/02/25 07:48:00;;;;;;;3.70;1.10;;;;;;;5.44;66.64;99562.78;5054723;28;41516;-78
2022/02/25 07:50:28;;;;;;;3.77;1.37;;;;;;;5.69;65.91;99564.59;5053929;28;41311;-80
2022/02/25 07:52:55;;;;;;;1.47;0.70;;;;;;;5.75;65.09;99569.66;5055132;28;40708;-80
2022/02/25 07:55:23;;;;;;;2.37;0.97;;;;;;;5.84;64.14;99558.00;5054073;28;42134;-80
2022/02/25 07:57:52;;;;;;;1.70;0.80;;;;;;;7.05;61.67;99584.53;5071790;28;42408;-79
2022/02/25 08:00:19;;;;;;;3.27;0.60;;;;;;;7.37;60.07;99595.66;5069784;28;40746;-78
2022/02/25 08:02:48;;;;;;;0.60;0.60;;;;;;;7.23;59.54;99593.53;5071180;28;41233;-82
2022/02/25 08:05:15;;;;;;;1.27;0.97;;;;;;;7.25;59.12;99599.63;5049946;28;41737;-82
2022/02/25 08:07:44;;;;;;;1.53;0.70;;;;;;;7.30;59.37;99584.47;5052265;28;43257;-80
2022/02/25 08:10:12;;;;;;;1.40;0.67;;;;;;;7.00;58.09;99594.38;5067875;28;40647;-80
2022/02/25 08:12:39;;;;;;;1.60;0.90;;;;;;;8.58;56.29;99614.53;5054279;28;42266;-84
2022/02/25 08:15:10;;;;;;;1.50;1.00;;;;;;;9.54;53.84;99606.75;5070503;28;41941;-83
2022/02/25 08:17:44;;;;;;;3.37;0.53;;;;;;;9.50;53.00;99605.19;5066300;28;42656;-81
2022/02/25 08:20:13;;;;;;;2.93;0.87;;;;;;;10.94;50.52;99637.81;5050832;28;39042;-79
2022/02/25 08:22:40;;;;;;;1.67;0.73;;;;;;;13.43;45.74;99651.19;5051799;28;42472;-79
2022/02/25 08:25:09;;;;;;;1.93;1.00;;;;;;;15.10;44.18;99666.91;5050123;28;41679;-79
2022/02/25 08:27:37;;;;;;;2.13;0.80;;;;;;;16.83;38.52;99702.59;5070728;28;41121;-80
2022/02/25 08:30:07;;;;;;;2.67;1.10;;;;;;;18.86;36.11;99683.84;5070351;28;40117;-79
2022/02/25 08:32:35;;;;;;;2.63;1.03;;;;;;;20.58;33.34;99699.25;5071167;28;41832;-79
2022/02/25 08:35:04;;;;;;;1.43;0.90;;;;;;;21.56;30.90;99718.00;5060000;28;41713;-80
2022/02/25 08:37:31;;;;;;;2.00;0.90;;;;;;;22.60;29.26;99708.84;5074321;28;40901;-83
2022/02/25 08:40:05;;;;;;;3.90;1.10;;;;;;;22.43;28.18;99712.34;5090297;28;40665;-81
2022/02/25 08:42:35;;;;;;;2.60;0.97;;;;;;;21.12;29.39;99701.44;5089976;28;42934;-78
2022/02/25 08:45:03;;;;;;;4.40;1.00;;;;;;;21.47;27.82;99716.19;5056256;28;43063;-82
2022/02/25 08:47:31;;;;;;;4.50;1.10;;;;;;;22.45;27.20;99700.41;5071667;28;41331;-81
2022/02/25 08:50:00;;;;;;;1.00;0.90;;;;;;;23.46;25.81;99711.88;5070882;28;40995;-85
2022/02/25 08:52:27;;;;;;;2.03;1.10;;;;;;;24.34;25.29;99716.22;5053753;28;41725;-82
2022/02/25 08:54:55;;;;;;;1.13;0.73;;;;;;;24.94;23.64;99724.22;5066705;28;41705;-80
2022/02/25 08:57:22;;;;;;;5.50;1.07;;;;;;;24.83;24.28;99719.94;5091042;28;42733;-81
2022/02/25 08:59:50;;;;;;;4.73;1.50;;;;;;;24.56;25.13;99718.31;5059456;28;38871;-82
2022/02/25 09:02:17;;;;;;;1.83;0.87;;;;;;;24.67;23.96;99725.28;5070942;28;41206;-82
2022/02/25 09:04:47;;;;;;;3.47;1.07;;;;;;;24.40;24.65;99720.97;5071540;28;20235;-81
2022/02/25 09:07:22;;;;;;;1.53;0.87;;;;;;;22.46;25.40;99706.66;5067253;28;42840;-84
2022/02/25 09:09:50;;;;;;;2.33;1.20;;;;;;;20.43;28.42;99689.88;5070275;28;40050;-85
2022/02/25 09:12:18;;;;;;;2.63;1.40;;;;;;;18.82;29.93;99688.63;5070491;28;41581;-80
2022/02/25 09:14:45;;;;;;;1.43;0.77;;;;;;;18.44;30.05;99677.47;5069568;28;43514;-80
2022/02/25 09:17:12;;;;;;;3.23;0.87;;;;;;;18.58;30.61;99666.50;5071115;28;43323;-77
2022/02/25 09:19:41;;;;;;;1.63;0.80;;;;;;;19.07;29.87;99654.34;5070402;28;39926;-79
2022/02/25 09:22:08;;;;;;;3.13;0.83;;;;;;;19.04;29.68;99668.06;5053855;28;40817;-79
2022/02/25 09:24:39;;;;;;;5.83;1.00;;;;;;;17.57;31.18;99623.69;5052890;28;44668;-79
2022/02/25 09:27:06;;;;;;;1.57;0.97;;;;;;;17.46;32.06;99630.84;5070742;28;42763;-83
2022/02/25 09:29:34;;;;;;;2.60;0.80;;;;;;;18.23;30.79;99648.75;5070238;28;39795;-82
2022/02/25 09:32:10;;;;;;;1.77;0.73;;;;;;;18.36;30.96;99651.28;5054298;28;42441;-82
2022/02/25 09:34:38;;;;;;;3.20;0.80;;;;;;;19.28;29.29;99660.59;5069296;28;42664;-90
2022/02/25 09:37:06;;;;;;;3.33;0.70;;;;;;;19.87;28.36;99649.19;5053646;28;42091;-79
2022/02/25 09:39:34;;;;;;;2.57;1.00;;;;;;;20.75;27.66;99678.91;5053075;28;38900;-86
2022/02/25 09:42:05;;;;;;;3.27;1.37;;;;;;;21.71;27.02;99662.66;5053647;28;40751;-87
2022/02/25 09:44:34;;;;;;;1.80;1.17;;;;;;;22.71;25.21;99699.66;5069719;28;42993;-82
2022/02/25 09:47:02;;;;;;;2.00;1.00;;;;;;;22.15;25.42;99642.16;5070671;28;42381;-81
2022/02/25 09:49:30;;;;;;;1.93;0.80;;;;;;;22.23;25.95;99657.63;5070222;28;39963;-88
2022/02/25 09:51:59;;;;;;;2.87;0.73;;;;;;;20.49;27.90;99661.56;5053732;28;40440;-83
2022/02/25 09:54:26;;;;;;;2.47;0.90;;;;;;;19.10;29.64;99659.47;5071846;28;43697;-83
2022/02/25 09:56:53;;;;;;;2.53;1.00;;;;;;;18.12;31.29;99630.03;5057210;28;42309;-86
2022/02/25 09:59:23;;;;;;;1.60;1.00;;;;;;;17.89;31.33;99639.94;5072487;28;39906;-80
2022/02/25 10:01:50;;;;;;;2.27;1.40;;;;;;;17.52;31.92;99636.59;5073469;28;42550;-82
2022/02/25 10:04:22;;;;;;;5.23;1.13;;;;;;;17.12;31.88;99643.34;5056202;28;42957;-79
2022/02/25 10:06:50;;;;;;;1.60;0.70;;;;;;;17.01;32.77;99629.94;5071634;28;43267;-79
2022/02/25 10:09:33;;;;;;;3.20;1.00;;;;;;;18.21;31.99;99649.84;5071361;28;39194;-79
2022/02/25 10:12:09;;;;;;;1.33;0.87;;;;;;;18.97;30.93;99654.28;5056380;28;42416;-82
2022/02/25 10:14:40;;;;;;;3.87;1.20;;;;;;;18.60;29.92;99652.00;5052585;28;41678;-81
2022/02/25 10:17:14;;;;;;;1.73;0.70;;;;;;;17.67;32.09;99655.16;5070835;28;42955;-81
2022/02/25 10:19:43;;;;;;;2.67;1.00;;;;;;;17.32;30.98;99596.28;5073197;28;39893;-81
2022/02/25 10:22:22;;;;;;;1.70;0.97;;;;;;;17.43;31.40;99666.75;5056661;28;41732;-80
2022/02/25 10:24:52;;;;;;;2.27;0.73;;;;;;;16.55;32.84;99633.38;5056269;28;41779;-85
2022/02/25 10:27:22;;;;;;;3.20;1.00;;;;;;;16.17;33.19;99637.06;5088993;28;42091;-83
2022/02/25 10:30:13;;;;;;;1.97;0.90;;;;;;;15.82;31.96;99647.59;5058427;28;38555;-83
2022/02/25 10:32:42;;;;;;;4.27;0.80;;;;;;;15.94;31.99;99648.56;5049990;28;41605;-83
2022/02/25 10:35:23;;;;;;;1.00;0.90;;;;;;;17.50;30.36;99654.59;5035438;28;41362;-83
2022/02/25 10:38:09;;;;;;;3.67;0.90;;;;;;;17.76;30.75;99651.75;5067979;28;40975;-78
2022/02/25 10:40:38;;;;;;;1.17;0.70;;;;;;;19.23;29.02;99657.44;5090669;28;39979;-81
2022/02/25 10:43:10;;;;;;;2.00;0.50;;;;;;;20.06;27.90;99670.75;5093558;28;42880;-81
2022/02/25 10:45:41;;;;;;;1.77;0.50;;;;;;;18.76;28.50;99669.50;5062539;28;41981;-84
2022/02/25 10:48:12;;;;;;;2.63;0.93;;;;;;;18.02;29.27;99650.50;5056175;28;41488;-84
2022/02/25 10:50:46;;;;;;;4.17;0.80;;;;;;;18.45;28.87;99663.09;5055579;28;38887;-78
2022/02/25 10:53:15;;;;;;;1.67;0.50;;;;;;;18.31;29.19;99656.16;5102158;28;41855;-77
2022/02/25 10:55:44;;;;;;;4.67;1.37;;;;;;;17.33;30.12;99652.38;5088214;28;42665;-76
2022/02/25 10:58:11;;;;;;;3.40;1.00;;;;;;;16.45;31.40;99657.25;5075038;28;41273;-79
2022/02/25 11:00:40;;;;;;;4.10;1.17;;;;;;;15.58;32.34;99644.00;5073599;28;39777;-81
2022/02/25 11:03:13;;;;;;;2.00;0.67;;;;;;;15.05;34.13;99611.22;5072133;28;41730;-84
2022/02/25 11:05:48;;;;;;;2.03;0.63;;;;;;;14.62;34.43;99618.59;5071292;28;43338;-83
2022/02/25 11:08:16;;;;;;;3.17;0.50;;;;;;;14.32;34.82;99610.81;5072917;28;42379;-78
2022/02/25 11:10:44;;;;;;;1.30;0.70;;;;;;;14.84;34.00;99622.47;5072618;28;41933;-82
2022/02/25 11:13:15;;;;;;;1.23;0.80;;;;;;;16.36;33.24;99617.84;5054877;28;40535;-78
2022/02/25 11:15:46;;;;;;;1.80;0.73;;;;;;;16.47;32.81;99620.56;5065391;28;41797;-77
2022/02/25 11:18:14;;;;;;;1.80;0.80;;;;;;;17.03;32.07;99628.00;5068557;28;42881;-80
2022/02/25 11:20:42;;;;;;;1.10;0.63;;;;;;;17.31;30.99;99611.47;5089784;28;39964;-82
2022/02/25 11:23:14;;;;;;;3.87;0.83;;;;;;;16.91;31.60;99639.63;5074949;28;41650;-83
2022/02/25 11:25:44;;;;;;;1.63;0.70;;;;;;;17.31;30.89;99638.25;5093900;27;42954;-82
2022/02/25 11:28:14;;;;;;;4.20;1.17;;;;;;;20.10;28.30;99645.31;5106831;28;41287;-84
2022/02/25 11:30:47;;;;;;;2.63;0.60;;;;;;;22.90;25.92;99657.19;5073299;28;39094;-78
2022/02/25 11:33:16;;;;;;;2.83;1.00;;;;;;;21.70;25.39;99668.19;5055653;28;41940;-76
2022/02/25 11:35:53;;;;;;;3.80;1.03;;;;;;;20.68;26.46;99653.50;5071762;28;41458;-80
2022/02/25 11:38:28;;;;;;;3.40;0.70;;;;;;;19.44;28.29;99658.25;5071149;28;42452;-81
2022/02/25 11:40:59;;;;;;;2.33;0.50;;;;;;;19.04;28.59;99643.88;5073189;28;41796;-81
2022/02/25 11:43:42;;;;;;;4.07;1.27;;;;;;;20.20;28.80;99631.88;5087390;28;42133;-81
2022/02/25 11:46:14;;;;;;;3.87;1.20;;;;;;;20.42;28.10;99642.44;5068705;28;43236;-78
2022/02/25 11:48:51;;;;;;;2.23;0.73;;;;;;;22.97;25.46;99641.22;5053856;28;42724;-82
2022/02/25 11:51:27;;;;;;;2.70;0.67;;;;;;;23.48;23.72;99650.41;5054325;28;40210;-81
2022/02/25 11:54:27;;;;;;;3.33;0.90;;;;;;;25.06;22.73;99660.53;5071218;28;41765;-81
2022/02/25 11:57:23;;;;;;;1.97;0.70;;;;;;;24.39;22.98;99651.56;5056404;28;42855;-81